sensor_id;sensor_type;location;lat;lon;timestamp;temperature;humidity
13496;DHT22;6820;49.374;8.452;2023-12-14T00:02:55;9.08;99.99
13496;DHT22;6820;49.374;8.452;2023-12-14T00:06:57;9.06;99.99
13496;DHT22;6820;49.374;8.452;2023-12-14T00:11:08;9.03;99.99
13496;DHT22;6820;49.374;8.452;2023-12-14T00:15:11;9.00;99.99
13496;DHT22;6820;49.374;8.452;2023-12-14T00:19:13;9.00;99.99
13496;DHT22;6820;49.374;8.452;2023-12-14T00:23:15;8.97;99.99
13496;DHT22;6820;49.374;8.452;2023-12-14T00:27:16;8.97;99.99
13496;DHT22;6820;49.374;8.452;2023-12-14T00:31:18;8.93;99.99
13496;DHT22;6820;49.374;8.452;2023-12-14T00:35:20;8.86;99.99
13496;DHT22;6820;49.374;8.452;2023-12-14T00:39:21;8.83;99.99
13496;DHT22;6820;49.374;8.452;2023-12-14T00:43:23;8.82;99.99
13496;DHT22;6820;49.374;8.452;2023-12-14T00:47:24;8.80;99.99
13496;DHT22;6820;49.374;8.452;2023-12-14T00:51:26;8.79;99.99
13496;DHT22;6820;49.374;8.452;2023-12-14T00:55:28;8.79;99.99
13496;DHT22;6820;49.374;8.452;2023-12-14T00:59:29;8.78;99.99
13496;DHT22;6820;49.374;8.452;2023-12-14T01:03:31;8.76;99.99
13496;DHT22;6820;49.374;8.452;2023-12-14T01:07:33;8.76;99.99
13496;DHT22;6820;49.374;8.452;2023-12-14T01:11:35;8.76;99.99
13496;DHT22;6820;49.374;8.452;2023-12-14T01:15:37;8.75;99.99
13496;DHT22;6820;49.374;8.452;2023-12-14T01:19:41;8.76;99.99
13496;DHT22;6820;49.374;8.452;2023-12-14T01:23:43;8.75;99.99
13496;DHT22;6820;49.374;8.452;2023-12-14T01:27:45;8.75;99.99
13496;DHT22;6820;49.374;8.452;2023-12-14T01:31:47;8.75;99.99
13496;DHT22;6820;49.374;8.452;2023-12-14T01:35:48;8.75;99.99
13496;DHT22;6820;49.374;8.452;2023-12-14T01:39:50;8.78;99.99
13496;DHT22;6820;49.374;8.452;2023-12-14T01:43:51;8.78;99.99
13496;DHT22;6820;49.374;8.452;2023-12-14T01:47:53;8.75;99.99
13496;DHT22;6820;49.374;8.452;2023-12-14T01:51:55;8.78;99.99
13496;DHT22;6820;49.374;8.452;2023-12-14T01:55:57;8.78;99.99
13496;DHT22;6820;49.374;8.452;2023-12-14T01:59:58;8.78;99.99
13496;DHT22;6820;49.374;8.452;2023-12-14T02:04:00;8.78;99.99
13496;DHT22;6820;49.374;8.452;2023-12-14T02:08:03;8.78;99.99
13496;DHT22;6820;49.374;8.452;2023-12-14T02:12:06;8.76;99.99
13496;DHT22;6820;49.374;8.452;2023-12-14T02:16:08;8.76;99.99
13496;DHT22;6820;49.374;8.452;2023-12-14T02:20:10;8.75;99.99
13496;DHT22;6820;49.374;8.452;2023-12-14T02:24:12;8.76;99.99
13496;DHT22;6820;49.374;8.452;2023-12-14T02:28:13;8.78;99.99
13496;DHT22;6820;49.374;8.452;2023-12-14T02:32:15;8.78;99.99
13496;DHT22;6820;49.374;8.452;2023-12-14T02:36:17;8.79;99.99
13496;DHT22;6820;49.374;8.452;2023-12-14T02:40:18;8.79;99.99
13496;DHT22;6820;49.374;8.452;2023-12-14T02:44:20;8.79;99.99
13496;DHT22;6820;49.374;8.452;2023-12-14T02:48:22;8.76;99.99
13496;DHT22;6820;49.374;8.452;2023-12-14T02:52:23;8.78;99.99
13496;DHT22;6820;49.374;8.452;2023-12-14T02:56:25;8.78;99.99
13496;DHT22;6820;49.374;8.452;2023-12-14T03:00:27;8.78;99.99
13496;DHT22;6820;49.374;8.452;2023-12-14T03:04:28;8.78;99.99
13496;DHT22;6820;49.374;8.452;2023-12-14T03:08:30;8.78;99.99
13496;DHT22;6820;49.374;8.452;2023-12-14T03:12:32;8.78;99.99
13496;DHT22;6820;49.374;8.452;2023-12-14T03:16:34;8.76;99.99
13496;DHT22;6820;49.374;8.452;2023-12-14T03:20:36;8.75;99.99
13496;DHT22;6820;49.374;8.452;2023-12-14T03:24:38;8.73;99.99
13496;DHT22;6820;49.374;8.452;2023-12-14T03:28:40;8.75;99.99
13496;DHT22;6820;49.374;8.452;2023-12-14T03:32:41;8.75;99.99
13496;DHT22;6820;49.374;8.452;2023-12-14T03:36:43;8.76;99.99
13496;DHT22;6820;49.374;8.452;2023-12-14T03:40:45;8.76;99.99
13496;DHT22;6820;49.374;8.452;2023-12-14T03:44:47;8.75;99.99
13496;DHT22;6820;49.374;8.452;2023-12-14T03:48:48;8.73;99.99
13496;DHT22;6820;49.374;8.452;2023-12-14T03:52:50;8.75;99.99
13496;DHT22;6820;49.374;8.452;2023-12-14T03:56:52;8.70;99.99
13496;DHT22;6820;49.374;8.452;2023-12-14T04:00:53;8.70;99.99
13496;DHT22;6820;49.374;8.452;2023-12-14T04:04:55;8.70;99.99
13496;DHT22;6820;49.374;8.452;2023-12-14T04:08:57;8.68;99.99
13496;DHT22;6820;49.374;8.452;2023-12-14T04:12:58;8.67;99.99
13496;DHT22;6820;49.374;8.452;2023-12-14T04:17:00;8.65;99.99
13496;DHT22;6820;49.374;8.452;2023-12-14T04:21:02;8.65;99.99
13496;DHT22;6820;49.374;8.452;2023-12-14T04:25:05;8.65;99.99
13496;DHT22;6820;49.374;8.452;2023-12-14T04:29:07;8.65;99.99
13496;DHT22;6820;49.374;8.452;2023-12-14T04:33:09;8.64;99.99
13496;DHT22;6820;49.374;8.452;2023-12-14T04:37:10;8.63;99.99
13496;DHT22;6820;49.374;8.452;2023-12-14T04:41:12;8.58;99.99
13496;DHT22;6820;49.374;8.452;2023-12-14T04:45:15;8.63;99.99
13496;DHT22;6820;49.374;8.452;2023-12-14T04:49:18;8.61;99.99
13496;DHT22;6820;49.374;8.452;2023-12-14T04:53:20;8.60;99.99
13496;DHT22;6820;49.374;8.452;2023-12-14T04:57:22;8.61;99.99
13496;DHT22;6820;49.374;8.452;2023-12-14T05:01:24;8.60;99.99
13496;DHT22;6820;49.374;8.452;2023-12-14T05:05:28;8.61;99.99
13496;DHT22;6820;49.374;8.452;2023-12-14T05:09:29;8.63;99.99
13496;DHT22;6820;49.374;8.452;2023-12-14T05:13:31;8.64;99.99
13496;DHT22;6820;49.374;8.452;2023-12-14T05:17:32;8.63;99.99
13496;DHT22;6820;49.374;8.452;2023-12-14T05:21:35;8.63;99.99
13496;DHT22;6820;49.374;8.452;2023-12-14T05:25:37;8.63;99.99
13496;DHT22;6820;49.374;8.452;2023-12-14T05:29:39;8.64;99.99
13496;DHT22;6820;49.374;8.452;2023-12-14T05:33:41;8.63;99.99
13496;DHT22;6820;49.374;8.452;2023-12-14T05:37:43;8.63;99.99
13496;DHT22;6820;49.374;8.452;2023-12-14T05:41:44;8.60;99.99
13496;DHT22;6820;49.374;8.452;2023-12-14T05:45:46;8.57;99.99
13496;DHT22;6820;49.374;8.452;2023-12-14T05:49:48;8.54;99.99
13496;DHT22;6820;49.374;8.452;2023-12-14T05:53:49;8.50;99.99
13496;DHT22;6820;49.374;8.452;2023-12-14T05:57:51;8.49;99.99
13496;DHT22;6820;49.374;8.452;2023-12-14T06:01:59;8.49;99.99
13496;DHT22;6820;49.374;8.452;2023-12-14T06:06:04;8.50;99.99
13496;DHT22;6820;49.374;8.452;2023-12-14T06:10:07;8.50;99.99
13496;DHT22;6820;49.374;8.452;2023-12-14T06:14:08;8.50;99.99
13496;DHT22;6820;49.374;8.452;2023-12-14T06:18:10;8.47;99.99
13496;DHT22;6820;49.374;8.452;2023-12-14T06:22:12;8.45;99.99
13496;DHT22;6820;49.374;8.452;2023-12-14T06:26:13;8.46;99.99
13496;DHT22;6820;49.374;8.452;2023-12-14T06:30:15;8.46;99.99
13496;DHT22;6820;49.374;8.452;2023-12-14T06:34:17;8.49;99.99
13496;DHT22;6820;49.374;8.452;2023-12-14T06:38:19;8.47;99.99
13496;DHT22;6820;49.374;8.452;2023-12-14T06:42:20;8.49;99.99
13496;DHT22;6820;49.374;8.452;2023-12-14T06:46:22;8.50;99.99
13496;DHT22;6820;49.374;8.452;2023-12-14T06:50:24;8.50;99.99
13496;DHT22;6820;49.374;8.452;2023-12-14T06:54:25;8.49;99.99
13496;DHT22;6820;49.374;8.452;2023-12-14T06:58:27;8.49;99.99
13496;DHT22;6820;49.374;8.452;2023-12-14T07:02:29;8.49;99.99
13496;DHT22;6820;49.374;8.452;2023-12-14T07:06:30;8.49;99.99
13496;DHT22;6820;49.374;8.452;2023-12-14T07:10:32;8.49;99.99
13496;DHT22;6820;49.374;8.452;2023-12-14T07:14:34;8.49;99.99
13496;DHT22;6820;49.374;8.452;2023-12-14T07:18:36;8.47;99.99
13496;DHT22;6820;49.374;8.452;2023-12-14T07:22:38;8.49;99.99
13496;DHT22;6820;49.374;8.452;2023-12-14T07:26:40;8.49;99.99
13496;DHT22;6820;49.374;8.452;2023-12-14T07:30:41;8.50;99.99
13496;DHT22;6820;49.374;8.452;2023-12-14T07:34:43;8.52;99.99
13496;DHT22;6820;49.374;8.452;2023-12-14T07:38:45;8.54;99.99
13496;DHT22;6820;49.374;8.452;2023-12-14T07:42:47;8.52;99.99
13496;DHT22;6820;49.374;8.452;2023-12-14T07:46:50;8.54;99.99
13496;DHT22;6820;49.374;8.452;2023-12-14T07:50:51;8.57;99.99
13496;DHT22;6820;49.374;8.452;2023-12-14T07:54:53;8.58;99.99
13496;DHT22;6820;49.374;8.452;2023-12-14T07:58:55;8.58;99.99
13496;DHT22;6820;49.374;8.452;2023-12-14T08:02:57;8.60;99.99
13496;DHT22;6820;49.374;8.452;2023-12-14T08:06:58;8.63;99.99
13496;DHT22;6820;49.374;8.452;2023-12-14T08:11:00;8.76;99.99
13496;DHT22;6820;49.374;8.452;2023-12-14T08:15:02;8.85;99.99
13496;DHT22;6820;49.374;8.452;2023-12-14T08:19:05;8.93;99.99
13496;DHT22;6820;49.374;8.452;2023-12-14T08:23:07;8.98;99.99
13496;DHT22;6820;49.374;8.452;2023-12-14T08:27:08;9.06;99.99
13496;DHT22;6820;49.374;8.452;2023-12-14T08:31:10;9.12;99.99
13496;DHT22;6820;49.374;8.452;2023-12-14T08:35:13;9.10;99.99
13496;DHT22;6820;49.374;8.452;2023-12-14T08:39:15;9.04;99.99
13496;DHT22;6820;49.374;8.452;2023-12-14T08:43:17;9.01;99.99
13496;DHT22;6820;49.374;8.452;2023-12-14T08:47:19;9.00;99.99
13496;DHT22;6820;49.374;8.452;2023-12-14T08:51:21;9.01;99.99
13496;DHT22;6820;49.374;8.452;2023-12-14T08:55:22;9.00;99.99
13496;DHT22;6820;49.374;8.452;2023-12-14T08:59:24;9.13;99.99
13496;DHT22;6820;49.374;8.452;2023-12-14T09:03:26;9.10;99.99
13496;DHT22;6820;49.374;8.452;2023-12-14T09:07:28;9.04;99.99
13496;DHT22;6820;49.374;8.452;2023-12-14T09:11:30;9.03;99.99
13496;DHT22;6820;49.374;8.452;2023-12-14T09:15:32;9.03;99.99
13496;DHT22;6820;49.374;8.452;2023-12-14T09:19:33;9.01;99.99
13496;DHT22;6820;49.374;8.452;2023-12-14T09:23:35;9.04;99.99
13496;DHT22;6820;49.374;8.452;2023-12-14T09:27:37;9.12;99.99
13496;DHT22;6820;49.374;8.452;2023-12-14T09:31:42;9.15;99.99
13496;DHT22;6820;49.374;8.452;2023-12-14T09:35:45;9.17;99.99
13496;DHT22;6820;49.374;8.452;2023-12-14T09:39:47;9.22;99.99
13496;DHT22;6820;49.374;8.452;2023-12-14T09:43:48;9.17;99.99
13496;DHT22;6820;49.374;8.452;2023-12-14T09:47:50;9.22;99.99
13496;DHT22;6820;49.374;8.452;2023-12-14T09:51:52;9.27;99.99
13496;DHT22;6820;49.374;8.452;2023-12-14T09:55:54;9.35;99.99
13496;DHT22;6820;49.374;8.452;2023-12-14T09:59:56;9.37;99.99
13496;DHT22;6820;49.374;8.452;2023-12-14T10:04:11;9.40;99.99
13496;DHT22;6820;49.374;8.452;2023-12-14T10:08:17;9.44;99.99
13496;DHT22;6820;49.374;8.452;2023-12-14T10:12:19;9.44;99.99
13496;DHT22;6820;49.374;8.452;2023-12-14T10:16:26;9.44;99.99
13496;DHT22;6820;49.374;8.452;2023-12-14T10:20:29;9.44;99.99
13496;DHT22;6820;49.374;8.452;2023-12-14T10:24:31;9.42;99.99
13496;DHT22;6820;49.374;8.452;2023-12-14T10:28:34;9.48;99.99
13496;DHT22;6820;49.374;8.452;2023-12-14T10:32:36;9.48;99.99
13496;DHT22;6820;49.374;8.452;2023-12-14T10:36:38;9.52;99.99
13496;DHT22;6820;49.374;8.452;2023-12-14T10:40:40;9.60;99.99
13496;DHT22;6820;49.374;8.452;2023-12-14T10:44:45;9.70;99.99
13496;DHT22;6820;49.374;8.452;2023-12-14T10:49:10;9.73;99.99
13496;DHT22;6820;49.374;8.452;2023-12-14T10:53:11;9.75;99.99
13496;DHT22;6820;49.374;8.452;2023-12-14T10:57:14;9.77;99.99
13496;DHT22;6820;49.374;8.452;2023-12-14T11:01:15;9.83;99.99
13496;DHT22;6820;49.374;8.452;2023-12-14T11:05:21;9.89;99.99
13496;DHT22;6820;49.374;8.452;2023-12-14T11:09:30;9.89;99.99
13496;DHT22;6820;49.374;8.452;2023-12-14T11:13:32;9.89;99.99
13496;DHT22;6820;49.374;8.452;2023-12-14T11:17:34;9.88;99.99
13496;DHT22;6820;49.374;8.452;2023-12-14T11:21:37;9.86;99.99
13496;DHT22;6820;49.374;8.452;2023-12-14T11:25:42;9.78;99.99
13496;DHT22;6820;49.374;8.452;2023-12-14T11:29:50;9.75;99.99
13496;DHT22;6820;49.374;8.452;2023-12-14T11:33:55;9.78;99.99
13496;DHT22;6820;49.374;8.452;2023-12-14T11:37:58;9.81;99.99
13496;DHT22;6820;49.374;8.452;2023-12-14T11:42:11;9.83;99.99
13496;DHT22;6820;49.374;8.452;2023-12-14T11:46:18;9.89;99.99
13496;DHT22;6820;49.374;8.452;2023-12-14T11:50:20;9.92;99.99
13496;DHT22;6820;49.374;8.452;2023-12-14T11:54:22;9.93;99.99
13496;DHT22;6820;49.374;8.452;2023-12-14T11:58:24;9.92;99.99
13496;DHT22;6820;49.374;8.452;2023-12-14T12:02:26;9.96;99.99
13496;DHT22;6820;49.374;8.452;2023-12-14T12:06:27;10.01;99.99
13496;DHT22;6820;49.374;8.452;2023-12-14T12:10:29;9.99;99.99
13496;DHT22;6820;49.374;8.452;2023-12-14T12:14:31;9.96;99.99
13496;DHT22;6820;49.374;8.452;2023-12-14T12:18:33;9.93;99.99
13496;DHT22;6820;49.374;8.452;2023-12-14T12:22:41;9.89;99.99
13496;DHT22;6820;49.374;8.452;2023-12-14T12:26:43;9.85;99.99
13496;DHT22;6820;49.374;8.452;2023-12-14T12:30:44;9.81;99.99
13496;DHT22;6820;49.374;8.452;2023-12-14T12:34:46;9.78;99.99
13496;DHT22;6820;49.374;8.452;2023-12-14T12:38:47;9.80;99.99
13496;DHT22;6820;49.374;8.452;2023-12-14T12:42:49;9.86;99.99
13496;DHT22;6820;49.374;8.452;2023-12-14T12:46:51;9.86;99.99
13496;DHT22;6820;49.374;8.452;2023-12-14T12:51:11;9.93;99.99
13496;DHT22;6820;49.374;8.452;2023-12-14T12:55:12;9.99;99.99
13496;DHT22;6820;49.374;8.452;2023-12-14T12:59:14;10.06;99.99
13496;DHT22;6820;49.374;8.452;2023-12-14T13:03:16;10.10;99.99
13496;DHT22;6820;49.374;8.452;2023-12-14T13:07:18;10.11;99.99
13496;DHT22;6820;49.374;8.452;2023-12-14T13:11:20;10.10;99.99
13496;DHT22;6820;49.374;8.452;2023-12-14T13:15:22;10.09;99.99
13496;DHT22;6820;49.374;8.452;2023-12-14T13:19:28;10.07;99.99
13496;DHT22;6820;49.374;8.452;2023-12-14T13:23:30;10.06;99.99
13496;DHT22;6820;49.374;8.452;2023-12-14T13:27:32;10.07;99.99
13496;DHT22;6820;49.374;8.452;2023-12-14T13:31:34;10.14;99.99
13496;DHT22;6820;49.374;8.452;2023-12-14T13:35:35;10.20;99.99
13496;DHT22;6820;49.374;8.452;2023-12-14T13:39:37;10.22;99.99
13496;DHT22;6820;49.374;8.452;2023-12-14T13:43:39;10.17;99.99
13496;DHT22;6820;49.374;8.452;2023-12-14T13:47:41;10.11;99.99
13496;DHT22;6820;49.374;8.452;2023-12-14T13:51:42;10.10;99.99
13496;DHT22;6820;49.374;8.452;2023-12-14T13:55:44;10.04;99.99
13496;DHT22;6820;49.374;8.452;2023-12-14T13:59:47;9.99;99.99
13496;DHT22;6820;49.374;8.452;2023-12-14T14:03:49;9.98;99.99
13496;DHT22;6820;49.374;8.452;2023-12-14T14:07:50;9.98;99.99
13496;DHT22;6820;49.374;8.452;2023-12-14T14:11:53;9.96;99.99
13496;DHT22;6820;49.374;8.452;2023-12-14T14:15:57;9.92;99.99
13496;DHT22;6820;49.374;8.452;2023-12-14T14:19:59;9.89;99.99
13496;DHT22;6820;49.374;8.452;2023-12-14T14:24:01;9.85;99.99
13496;DHT22;6820;49.374;8.452;2023-12-14T14:28:02;9.83;99.99
13496;DHT22;6820;49.374;8.452;2023-12-14T14:32:05;9.81;99.99
13496;DHT22;6820;49.374;8.452;2023-12-14T14:36:08;9.83;99.99
13496;DHT22;6820;49.374;8.452;2023-12-14T14:40:12;9.77;99.99
13496;DHT22;6820;49.374;8.452;2023-12-14T14:44:14;9.73;99.99
13496;DHT22;6820;49.374;8.452;2023-12-14T14:48:16;9.68;99.99
13496;DHT22;6820;49.374;8.452;2023-12-14T14:52:19;9.60;99.99
13496;DHT22;6820;49.374;8.452;2023-12-14T14:56:21;9.50;99.99
13496;DHT22;6820;49.374;8.452;2023-12-14T15:00:23;9.40;99.99
13496;DHT22;6820;49.374;8.452;2023-12-14T15:04:24;9.32;99.99
13496;DHT22;6820;49.374;8.452;2023-12-14T15:08:26;9.30;99.99
13496;DHT22;6820;49.374;8.452;2023-12-14T15:12:28;9.24;99.99
13496;DHT22;6820;49.374;8.452;2023-12-14T15:16:30;9.23;99.99
13496;DHT22;6820;49.374;8.452;2023-12-14T15:20:31;9.17;99.99
13496;DHT22;6820;49.374;8.452;2023-12-14T15:24:33;9.13;99.99
13496;DHT22;6820;49.374;8.452;2023-12-14T15:28:35;9.13;99.99
13496;DHT22;6820;49.374;8.452;2023-12-14T15:32:37;9.10;99.99
13496;DHT22;6820;49.374;8.452;2023-12-14T15:36:39;9.06;99.99
13496;DHT22;6820;49.374;8.452;2023-12-14T15:40:40;9.04;99.99
13496;DHT22;6820;49.374;8.452;2023-12-14T15:44:43;9.03;99.99
13496;DHT22;6820;49.374;8.452;2023-12-14T15:48:46;9.00;99.99
13496;DHT22;6820;49.374;8.452;2023-12-14T15:52:48;8.97;99.99
13496;DHT22;6820;49.374;8.452;2023-12-14T15:56:49;8.93;99.99
13496;DHT22;6820;49.374;8.452;2023-12-14T16:00:51;8.91;99.99
13496;DHT22;6820;49.374;8.452;2023-12-14T16:04:53;8.88;99.99
13496;DHT22;6820;49.374;8.452;2023-12-14T16:08:54;8.86;99.99
13496;DHT22;6820;49.374;8.452;2023-12-14T16:12:56;8.82;99.99
13496;DHT22;6820;49.374;8.452;2023-12-14T16:16:58;8.80;99.99
13496;DHT22;6820;49.374;8.452;2023-12-14T16:20:59;8.79;99.99
13496;DHT22;6820;49.374;8.452;2023-12-14T16:25:01;8.75;99.99
13496;DHT22;6820;49.374;8.452;2023-12-14T16:29:04;8.75;99.99
13496;DHT22;6820;49.374;8.452;2023-12-14T16:33:06;8.73;99.99
13496;DHT22;6820;49.374;8.452;2023-12-14T16:37:10;8.73;99.99
13496;DHT22;6820;49.374;8.452;2023-12-14T16:41:12;8.67;99.99
13496;DHT22;6820;49.374;8.452;2023-12-14T16:45:14;8.63;99.99
13496;DHT22;6820;49.374;8.452;2023-12-14T16:49:15;8.58;99.99
13496;DHT22;6820;49.374;8.452;2023-12-14T16:53:17;8.55;99.99
13496;DHT22;6820;49.374;8.452;2023-12-14T16:57:18;8.52;99.99
13496;DHT22;6820;49.374;8.452;2023-12-14T17:01:22;8.49;99.99
13496;DHT22;6820;49.374;8.452;2023-12-14T17:05:24;8.47;99.99
13496;DHT22;6820;49.374;8.452;2023-12-14T17:09:26;8.46;99.99
13496;DHT22;6820;49.374;8.452;2023-12-14T17:13:29;8.43;99.99
13496;DHT22;6820;49.374;8.452;2023-12-14T17:17:30;8.40;99.99
13496;DHT22;6820;49.374;8.452;2023-12-14T17:21:35;8.36;99.99
13496;DHT22;6820;49.374;8.452;2023-12-14T17:25:37;8.27;99.99
13496;DHT22;6820;49.374;8.452;2023-12-14T17:29:39;8.22;99.99
13496;DHT22;6820;49.374;8.452;2023-12-14T17:33:40;8.18;99.99
13496;DHT22;6820;49.374;8.452;2023-12-14T17:37:43;8.14;99.99
13496;DHT22;6820;49.374;8.452;2023-12-14T17:41:46;8.09;99.99
13496;DHT22;6820;49.374;8.452;2023-12-14T17:45:48;8.04;99.99
13496;DHT22;6820;49.374;8.452;2023-12-14T17:49:52;8.02;99.99
13496;DHT22;6820;49.374;8.452;2023-12-14T17:53:58;8.00;99.99
13496;DHT22;6820;49.374;8.452;2023-12-14T17:57:59;7.99;99.99
13496;DHT22;6820;49.374;8.452;2023-12-14T18:02:06;7.96;99.99
13496;DHT22;6820;49.374;8.452;2023-12-14T18:06:08;8.03;99.99
13496;DHT22;6820;49.374;8.452;2023-12-14T18:10:14;7.96;99.99
13496;DHT22;6820;49.374;8.452;2023-12-14T18:14:17;7.96;99.99
13496;DHT22;6820;49.374;8.452;2023-12-14T18:18:18;8.00;99.99
13496;DHT22;6820;49.374;8.452;2023-12-14T18:22:24;7.99;99.99
13496;DHT22;6820;49.374;8.452;2023-12-14T18:26:26;7.99;99.99
13496;DHT22;6820;49.374;8.452;2023-12-14T18:30:28;8.00;99.99
13496;DHT22;6820;49.374;8.452;2023-12-14T18:34:30;7.96;99.99
13496;DHT22;6820;49.374;8.452;2023-12-14T18:38:32;7.95;99.99
13496;DHT22;6820;49.374;8.452;2023-12-14T18:42:34;7.94;99.99
13496;DHT22;6820;49.374;8.452;2023-12-14T18:46:36;7.89;99.99
13496;DHT22;6820;49.374;8.452;2023-12-14T18:50:38;7.86;99.99
13496;DHT22;6820;49.374;8.452;2023-12-14T18:54:39;7.81;99.99
13496;DHT22;6820;49.374;8.452;2023-12-14T18:58:41;7.79;99.99
13496;DHT22;6820;49.374;8.452;2023-12-14T19:02:43;7.74;99.99
13496;DHT22;6820;49.374;8.452;2023-12-14T19:06:44;7.74;99.99
13496;DHT22;6820;49.374;8.452;2023-12-14T19:10:46;7.76;99.99
13496;DHT22;6820;49.374;8.452;2023-12-14T19:14:48;7.74;99.99
13496;DHT22;6820;49.374;8.452;2023-12-14T19:18:50;7.74;99.99
13496;DHT22;6820;49.374;8.452;2023-12-14T19:22:51;7.74;99.99
13496;DHT22;6820;49.374;8.452;2023-12-14T19:26:53;7.73;99.99
13496;DHT22;6820;49.374;8.452;2023-12-14T19:30:55;7.73;99.99
13496;DHT22;6820;49.374;8.452;2023-12-14T19:34:56;7.74;99.99
13496;DHT22;6820;49.374;8.452;2023-12-14T19:38:59;7.76;99.99
13496;DHT22;6820;49.374;8.452;2023-12-14T19:43:04;7.70;99.99
13496;DHT22;6820;49.374;8.452;2023-12-14T19:47:06;7.70;99.99
13496;DHT22;6820;49.374;8.452;2023-12-14T19:51:09;7.73;99.99
13496;DHT22;6820;49.374;8.452;2023-12-14T19:55:12;7.70;99.99
13496;DHT22;6820;49.374;8.452;2023-12-14T19:59:15;7.70;99.99
13496;DHT22;6820;49.374;8.452;2023-12-14T20:03:17;7.70;99.99
13496;DHT22;6820;49.374;8.452;2023-12-14T20:07:19;7.62;99.99
13496;DHT22;6820;49.374;8.452;2023-12-14T20:11:20;7.60;99.99
13496;DHT22;6820;49.374;8.452;2023-12-14T20:15:22;7.57;99.99
13496;DHT22;6820;49.374;8.452;2023-12-14T20:19:24;7.54;99.99
13496;DHT22;6820;49.374;8.452;2023-12-14T20:23:26;7.51;99.99
13496;DHT22;6820;49.374;8.452;2023-12-14T20:27:28;7.47;99.99
13496;DHT22;6820;49.374;8.452;2023-12-14T20:31:30;7.42;99.99
13496;DHT22;6820;49.374;8.452;2023-12-14T20:35:34;7.37;99.99
13496;DHT22;6820;49.374;8.452;2023-12-14T20:39:36;7.34;99.99
13496;DHT22;6820;49.374;8.452;2023-12-14T20:43:39;7.34;99.99
13496;DHT22;6820;49.374;8.452;2023-12-14T20:47:41;7.30;99.99
13496;DHT22;6820;49.374;8.452;2023-12-14T20:51:43;7.30;99.99
13496;DHT22;6820;49.374;8.452;2023-12-14T20:55:44;7.30;99.99
13496;DHT22;6820;49.374;8.452;2023-12-14T20:59:46;7.29;99.99
13496;DHT22;6820;49.374;8.452;2023-12-14T21:03:54;7.29;99.99
13496;DHT22;6820;49.374;8.452;2023-12-14T21:07:56;7.30;99.99
13496;DHT22;6820;49.374;8.452;2023-12-14T21:11:58;7.32;99.99
13496;DHT22;6820;49.374;8.452;2023-12-14T21:16:00;7.33;99.99
13496;DHT22;6820;49.374;8.452;2023-12-14T21:20:05;7.34;99.99
13496;DHT22;6820;49.374;8.452;2023-12-14T21:24:07;7.36;99.99
13496;DHT22;6820;49.374;8.452;2023-12-14T21:28:12;7.37;99.99
13496;DHT22;6820;49.374;8.452;2023-12-14T21:32:14;7.41;99.99
13496;DHT22;6820;49.374;8.452;2023-12-14T21:36:16;7.41;99.99
13496;DHT22;6820;49.374;8.452;2023-12-14T21:40:21;7.36;99.99
13496;DHT22;6820;49.374;8.452;2023-12-14T21:44:22;7.36;99.99
13496;DHT22;6820;49.374;8.452;2023-12-14T21:48:25;7.37;99.99
13496;DHT22;6820;49.374;8.452;2023-12-14T21:52:27;7.34;99.99
13496;DHT22;6820;49.374;8.452;2023-12-14T21:56:30;7.34;99.99
13496;DHT22;6820;49.374;8.452;2023-12-14T22:00:32;7.36;99.99
13496;DHT22;6820;49.374;8.452;2023-12-14T22:04:34;7.36;99.99
13496;DHT22;6820;49.374;8.452;2023-12-14T22:08:36;7.36;99.99
13496;DHT22;6820;49.374;8.452;2023-12-14T22:12:38;7.37;99.99
13496;DHT22;6820;49.374;8.452;2023-12-14T22:16:40;7.33;99.99
13496;DHT22;6820;49.374;8.452;2023-12-14T22:20:41;7.34;99.99
13496;DHT22;6820;49.374;8.452;2023-12-14T22:24:43;7.30;99.99
13496;DHT22;6820;49.374;8.452;2023-12-14T22:28:44;7.24;99.99
13496;DHT22;6820;49.374;8.452;2023-12-14T22:32:46;7.24;99.99
13496;DHT22;6820;49.374;8.452;2023-12-14T22:36:48;7.24;99.99
13496;DHT22;6820;49.374;8.452;2023-12-14T22:40:51;7.26;99.99
13496;DHT22;6820;49.374;8.452;2023-12-14T22:44:54;7.23;99.99
13496;DHT22;6820;49.374;8.452;2023-12-14T22:48:56;7.24;99.99
13496;DHT22;6820;49.374;8.452;2023-12-14T22:52:58;7.21;99.99
13496;DHT22;6820;49.374;8.452;2023-12-14T22:56:59;7.24;99.99
13496;DHT22;6820;49.374;8.452;2023-12-14T23:01:01;7.23;99.99
13496;DHT22;6820;49.374;8.452;2023-12-14T23:05:03;7.29;99.99
13496;DHT22;6820;49.374;8.452;2023-12-14T23:09:05;7.34;99.99
13496;DHT22;6820;49.374;8.452;2023-12-14T23:13:07;7.36;99.99
13496;DHT22;6820;49.374;8.452;2023-12-14T23:17:08;7.39;99.99
13496;DHT22;6820;49.374;8.452;2023-12-14T23:21:10;7.42;99.99
13496;DHT22;6820;49.374;8.452;2023-12-14T23:25:12;7.45;99.99
13496;DHT22;6820;49.374;8.452;2023-12-14T23:29:13;7.45;99.99
13496;DHT22;6820;49.374;8.452;2023-12-14T23:33:15;7.42;99.99
13496;DHT22;6820;49.374;8.452;2023-12-14T23:37:17;7.37;99.99
13496;DHT22;6820;49.374;8.452;2023-12-14T23:41:20;7.36;99.99
13496;DHT22;6820;49.374;8.452;2023-12-14T23:45:22;7.33;99.99
13496;DHT22;6820;49.374;8.452;2023-12-14T23:49:23;7.29;99.99
13496;DHT22;6820;49.374;8.452;2023-12-14T23:53:25;7.30;99.99
13496;DHT22;6820;49.374;8.452;2023-12-14T23:57:27;7.33;99.99
